Mobile Site You Are Here > Home > Minor Leagues > Players > Josh Bell 2013 Minor League Gamelogs & Splits


Josh Bell

Joshua E. Bell

Position: Rightfielder
Bats: Both, Throws: Right
Height: 6' 3", Weight: 213 lb.

Born: August 14, 1992 in Irving, Texas, US
High School: Dallas Jesuit College Prep (Dallas, TX)

Drafted by the Pittsburgh Pirates in the 2nd round of the 2011 MLB June Amateur Draft from Dallas Jesuit College Prep (Dallas, TX).

Prospect Ratings by Baseball America:
Pre-2012: Rated #60 Prospect
Prospect Ratings by MLB.com:
Pre-2012: Rated #69 Prospect
Prospect Ratings by BaseballProspectus.com:
Pre-2012: Rated #43 Prospect
Pre-2014: Rated #77 Prospect

B-R Bullpen Page

Josh Bell
/ Gamelogs & Splits
 Batting: 2014 / 2013 / 2012

2013 Player Batting Gamelog

Rk Date Lev Tm   Opp PA AB R H 2B 3B HR RBI BB IBB SO HBP SH SF GDP SB CS Pos E
1 2013-04-04 A-SALL West Virginia Power Asheville Tourists 4 4 0 1 0 0 0 0 0 0 2 0 0 0 0 0 0 RF 0
2 2013-04-05 A-SALL West Virginia Power Asheville Tourists 5 4 1 0 0 0 0 1 1 0 1 0 0 0 0 0 0 RF 0
3 2013-04-06 A-SALL West Virginia Power Asheville Tourists 4 4 0 0 0 0 0 0 0 0 0 0 0 0 0 0 0 0
4 2013-04-08 A-SALL West Virginia Power Charleston RiverDogs 5 4 0 1 1 0 0 3 1 0 1 0 0 0 0 0 0 RF 0
5 2013-04-09 A-SALL West Virginia Power Charleston RiverDogs 6 6 2 2 2 0 0 2 0 0 2 0 0 0 0 0 0 RF 0
6 2013-04-10 A-SALL West Virginia Power Charleston RiverDogs 4 4 2 2 1 0 1 3 0 0 1 0 0 0 0 0 0 RF 1
7 2013-04-11 A-SALL West Virginia Power @ Asheville Tourists 5 5 2 4 2 0 0 2 0 0 1 0 0 0 0 0 0 RF 0
8 2013-04-12 A-SALL West Virginia Power @ Asheville Tourists 4 4 1 1 1 0 0 1 0 0 1 0 0 0 0 0 0 0
9 2013-04-13 A-SALL West Virginia Power @ Asheville Tourists 6 6 1 1 0 0 0 0 0 0 2 0 0 0 0 0 0 RF 0
10 2013-04-15 A-SALL West Virginia Power @ Greenville Drive 5 5 0 1 1 0 0 2 0 0 2 0 0 0 2 0 0 RF 0
11 2013-04-16 A-SALL West Virginia Power @ Greenville Drive 5 4 3 1 0 0 0 0 1 0 2 0 0 0 1 0 0 0
12 2013-04-17 A-SALL West Virginia Power @ Greenville Drive 5 5 0 0 0 0 0 0 0 0 2 0 0 0 0 0 0 RF 0
13 2013-04-18 A-SALL West Virginia Power Hagerstown Suns 5 4 2 1 0 0 0 2 1 0 0 0 0 0 0 0 0 RF 0
14 2013-04-19 A-SALL West Virginia Power Hagerstown Suns 4 4 0 1 1 0 0 1 0 0 2 0 0 0 0 0 0 RF 0
15 2013-04-20 A-SALL West Virginia Power Hagerstown Suns 5 5 0 1 0 0 0 0 0 0 0 0 0 0 0 0 0 0
16 2013-04-21 A-SALL West Virginia Power Hagerstown Suns 5 5 2 4 0 0 1 4 0 0 0 0 0 0 0 1 0 RF 0
17 2013-04-23 A-SALL West Virginia Power @ Charleston RiverDogs 4 3 0 1 1 0 0 0 1 0 1 0 0 0 0 0 0 0
18 2013-04-24 A-SALL West Virginia Power @ Charleston RiverDogs 5 5 1 1 0 0 1 3 0 0 2 0 0 0 0 0 0 RF 0
19 2013-04-25 A-SALL West Virginia Power @ Charleston RiverDogs 5 4 0 1 0 0 0 1 0 0 0 0 0 1 0 0 0 RF 0
20 2013-04-26 A-SALL West Virginia Power @ Savannah Sand Gnats 4 4 0 0 0 0 0 0 0 0 1 0 0 0 0 0 0 RF 0
21 2013-04-27 A-SALL West Virginia Power @ Savannah Sand Gnats 4 4 0 0 0 0 0 0 0 0 3 0 0 0 0 0 0 0
22 2013-04-28 A-SALL West Virginia Power @ Savannah Sand Gnats 4 4 1 2 0 0 0 0 0 0 0 0 0 0 1 0 0 RF 0
23 2013-04-29 A-SALL West Virginia Power @ Savannah Sand Gnats 5 4 1 2 2 0 0 3 0 0 1 0 0 1 0 0 0 RF 0
24 2013-05-01 A-SALL West Virginia Power Greensboro Grasshoppers 5 2 0 0 0 0 0 0 3 0 2 0 0 0 0 0 0 RF 0
25 2013-05-02 A-SALL West Virginia Power Greensboro Grasshoppers 4 3 0 0 0 0 0 0 1 0 1 0 0 0 1 0 0 RF 0
26 2013-05-03 A-SALL West Virginia Power Greensboro Grasshoppers 4 3 1 1 0 0 0 0 1 0 0 0 0 0 0 0 0 0
27 2013-05-05 A-SALL West Virginia Power Greenville Drive 4 4 1 2 0 0 1 2 0 0 0 0 0 0 0 0 0 RF 0
28 2013-05-07 A-SALL West Virginia Power Greenville Drive 5 5 1 2 0 0 0 0 0 0 2 0 0 0 0 0 0 RF 0
29 2013-05-08 A-SALL West Virginia Power Greenville Drive 4 4 3 3 0 0 1 2 0 0 0 0 0 0 0 0 0 RF 0
30 2013-05-08 (2) A-SALL West Virginia Power Greenville Drive 4 3 1 0 0 0 0 0 1 0 0 0 0 0 0 0 0 0
31 2013-05-09 A-SALL West Virginia Power @ Lexington Legends 4 4 0 1 0 0 0 0 0 0 1 0 0 0 0 0 0 RF 0
32 2013-05-11 A-SALL West Virginia Power @ Lexington Legends 3 2 0 0 0 0 0 0 1 0 1 0 0 0 0 0 1 0
33 2013-05-11 (2) A-SALL West Virginia Power @ Lexington Legends 4 3 1 2 0 0 1 2 1 0 1 0 0 0 0 0 0 RF 0
34 2013-05-12 A-SALL West Virginia Power @ Lexington Legends 4 3 0 2 0 0 0 0 1 0 0 0 0 0 0 0 0 RF 0
35 2013-05-13 A-SALL West Virginia Power @ Hickory Crawdads 6 4 2 1 0 0 0 1 2 0 1 0 0 0 0 0 0 RF 0
36 2013-05-14 A-SALL West Virginia Power @ Hickory Crawdads 4 3 0 0 0 0 0 0 1 0 1 0 0 0 0 0 0 0
37 2013-05-15 A-SALL West Virginia Power @ Hickory Crawdads 5 5 0 2 0 0 0 0 0 0 1 0 0 0 0 0 0 RF 0
38 2013-05-17 A-SALL West Virginia Power Lexington Legends 4 3 0 0 0 0 0 0 1 0 0 0 0 0 0 0 0 RF 0
39 2013-05-18 A-SALL West Virginia Power Lexington Legends 3 3 0 0 0 0 0 0 0 0 0 0 0 0 0 0 0 0
40 2013-05-18 (2) A-SALL West Virginia Power Lexington Legends 4 3 0 0 0 0 0 0 1 0 1 0 0 0 0 0 0 RF 0
41 2013-05-19 A-SALL West Virginia Power Lexington Legends 5 4 1 1 0 0 0 0 1 0 1 0 0 0 0 0 0 RF 0
42 2013-05-20 A-SALL West Virginia Power @ Kannapolis Intimidators 5 4 2 2 1 0 0 2 1 0 0 0 0 0 0 0 0 RF 0
43 2013-05-21 A-SALL West Virginia Power @ Kannapolis Intimidators 5 5 0 0 0 0 0 0 0 0 1 0 0 0 0 0 0 0
44 2013-05-23 A-SALL West Virginia Power Lakewood BlueClaws 6 5 1 2 0 1 0 0 1 0 1 0 0 0 1 0 0 RF 0
45 2013-05-24 A-SALL West Virginia Power Lakewood BlueClaws 5 4 2 1 0 0 0 1 1 0 1 0 0 0 0 0 0 RF 0
46 2013-05-25 A-SALL West Virginia Power Lakewood BlueClaws 3 3 1 1 1 0 0 0 0 0 1 0 0 0 0 0 0 0
47 2013-05-26 A-SALL West Virginia Power Lakewood BlueClaws 5 2 1 0 0 0 0 0 3 0 2 0 0 0 0 0 0 RF 0
48 2013-05-27 A-SALL West Virginia Power Greensboro Grasshoppers 4 4 0 2 1 0 0 0 0 0 0 0 0 0 0 0 0 RF 1
49 2013-05-28 A-SALL West Virginia Power Greensboro Grasshoppers 5 5 0 0 0 0 0 0 0 0 2 0 0 0 0 0 0 0
50 2013-05-29 A-SALL West Virginia Power Greensboro Grasshoppers 4 4 2 2 0 0 1 2 0 0 0 0 0 0 0 0 0 RF 0
51 2013-05-30 A-SALL West Virginia Power @ Lakewood BlueClaws 5 5 0 0 0 0 0 0 0 0 2 0 0 0 0 0 0 RF 0
52 2013-05-31 A-SALL West Virginia Power @ Lakewood BlueClaws 4 4 0 1 0 0 0 0 0 0 2 0 0 0 0 0 0 RF 0
53 2013-06-01 A-SALL West Virginia Power @ Lakewood BlueClaws 5 5 1 1 0 1 0 2 0 0 0 0 0 0 0 0 0 0
54 2013-06-02 A-SALL West Virginia Power @ Lakewood BlueClaws 5 5 1 2 0 0 0 1 0 0 1 0 0 0 0 0 0 RF 0
55 2013-06-04 A-SALL West Virginia Power Delmarva Shorebirds 4 4 1 1 0 0 1 2 0 0 0 0 0 0 0 0 0 RF 0
56 2013-06-05 A-SALL West Virginia Power Delmarva Shorebirds 2 2 0 0 0 0 0 0 0 0 0 0 0 0 1 0 0 RF 0
57 2013-06-07 A-SALL West Virginia Power Hagerstown Suns 4 4 1 2 1 0 0 0 0 0 1 0 0 0 0 0 0 RF 0
58 2013-06-08 A-SALL West Virginia Power Hagerstown Suns 4 4 0 2 0 0 0 0 0 0 0 0 0 0 0 0 0 0
59 2013-06-09 A-SALL West Virginia Power Hagerstown Suns 4 4 0 1 0 0 0 0 0 0 0 0 0 0 0 0 0 RF 0
60 2013-06-11 A-SALL West Virginia Power @ Delmarva Shorebirds 5 3 2 3 1 0 0 0 2 0 0 0 0 0 0 0 0 RF 0
61 2013-06-11 (2) A-SALL West Virginia Power @ Delmarva Shorebirds 3 3 1 1 1 0 0 1 0 0 0 0 0 0 0 0 0 0
62 2013-06-12 A-SALL West Virginia Power @ Delmarva Shorebirds 3 3 0 0 0 0 0 0 0 0 2 0 0 0 0 0 0 RF 0
63 2013-06-12 (2) A-SALL West Virginia Power @ Delmarva Shorebirds 4 4 0 2 1 0 0 0 0 0 0 0 0 0 0 0 0 0
64 2013-06-13 A-SALL West Virginia Power @ Greensboro Grasshoppers 4 4 1 2 1 0 0 0 0 0 0 0 0 0 1 0 0 RF 0
65 2013-06-14 A-SALL West Virginia Power @ Greensboro Grasshoppers 4 4 0 1 0 0 0 0 0 0 1 0 0 0 0 0 0 0
66 2013-06-21 A-SALL West Virginia Power Lakewood BlueClaws 5 5 2 2 1 0 0 0 0 0 0 0 0 0 0 0 0 0
67 2013-06-22 A-SALL West Virginia Power Lakewood BlueClaws 5 5 1 2 0 0 0 2 0 0 0 0 0 0 0 0 0 RF 0
68 2013-06-24 A-SALL West Virginia Power Hagerstown Suns 5 4 0 1 0 0 0 0 1 0 1 0 0 0 0 0 0 RF 0
69 2013-06-25 A-SALL West Virginia Power Hagerstown Suns 4 3 0 0 0 0 0 1 0 0 2 0 0 1 0 0 0 RF 0
70 2013-06-27 A-SALL West Virginia Power @ Lakewood BlueClaws 5 5 0 0 0 0 0 0 0 0 2 0 0 0 0 0 0 RF 0
71 2013-06-28 A-SALL West Virginia Power @ Lakewood BlueClaws 5 5 1 2 0 0 0 2 0 0 1 0 0 0 0 0 0 RF 0
72 2013-06-29 A-SALL West Virginia Power @ Lakewood BlueClaws 4 4 0 1 0 0 0 0 0 0 1 0 0 0 0 0 0 0
73 2013-07-01 A-SALL West Virginia Power @ Hagerstown Suns 4 3 0 2 2 0 0 0 1 0 0 0 0 0 0 0 0 RF 0
74 2013-07-02 A-SALL West Virginia Power @ Hagerstown Suns 4 3 0 1 0 0 0 0 0 0 1 1 0 0 0 0 0 RF 0
75 2013-07-03 A-SALL West Virginia Power @ Hagerstown Suns 4 4 0 0 0 0 0 0 0 0 1 0 0 0 0 0 0 0
76 2013-07-05 A-SALL West Virginia Power Lexington Legends 4 4 0 0 0 0 0 0 0 0 2 0 0 0 0 0 0 RF 0
77 2013-07-06 A-SALL West Virginia Power Lexington Legends 5 3 0 0 0 0 0 0 2 0 0 0 0 0 1 0 0 RF 0
78 2013-07-09 A-SALL West Virginia Power @ Kannapolis Intimidators 4 4 0 0 0 0 0 0 0 0 1 0 0 0 0 0 0 RF 0
79 2013-07-10 A-SALL West Virginia Power @ Kannapolis Intimidators 4 4 0 2 1 0 0 2 0 0 0 0 0 0 0 0 0 RF 0
80 2013-07-12 A-SALL West Virginia Power @ Asheville Tourists 4 4 0 0 0 0 0 0 0 0 0 0 0 0 0 0 0 RF 0
81 2013-07-13 A-SALL West Virginia Power @ Asheville Tourists 4 3 1 2 2 0 0 1 1 0 0 0 0 0 0 0 0 RF 0
82 2013-07-14 A-SALL West Virginia Power @ Asheville Tourists 5 4 1 1 1 0 0 1 1 0 0 0 0 0 0 0 0 0
83 2013-07-17 A-SALL West Virginia Power Savannah Sand Gnats 3 2 1 1 0 0 0 1 0 0 1 0 0 1 0 0 0 RF 0
84 2013-07-18 A-SALL West Virginia Power Savannah Sand Gnats 4 3 1 1 1 0 0 0 1 0 0 0 0 0 0 0 0 0
85 2013-07-20 A-SALL West Virginia Power Kannapolis Intimidators 4 4 1 1 1 0 0 1 0 0 0 0 0 0 0 0 0 RF 0
86 2013-07-21 A-SALL West Virginia Power Kannapolis Intimidators 5 4 1 1 0 0 1 3 0 0 2 0 0 1 0 0 0 0
87 2013-07-23 (2) A-SALL West Virginia Power Kannapolis Intimidators 3 3 1 1 0 0 0 0 0 0 0 0 0 0 0 0 0 RF 0
88 2013-07-25 A-SALL West Virginia Power @ Lexington Legends 5 5 0 0 0 0 0 0 0 0 1 0 0 0 0 0 0 0
89 2013-07-26 A-SALL West Virginia Power @ Lexington Legends 5 4 0 0 0 0 0 1 1 0 1 0 0 0 0 0 0 RF 0
90 2013-07-27 A-SALL West Virginia Power @ Lexington Legends 3 2 0 0 0 0 0 0 1 0 1 0 0 0 0 0 0 RF 0
91 2013-07-28 A-SALL West Virginia Power @ Lexington Legends 5 5 0 2 0 0 0 0 0 0 2 0 0 0 0 0 0 0
92 2013-07-30 A-SALL West Virginia Power Delmarva Shorebirds 4 4 1 2 1 0 0 1 0 0 0 0 0 0 0 0 0 RF 0
93 2013-07-31 A-SALL West Virginia Power Delmarva Shorebirds 4 2 1 1 1 0 0 0 1 0 0 1 0 0 0 0 0 RF 0
94 2013-08-01 A-SALL West Virginia Power Lakewood BlueClaws 4 4 1 1 1 0 0 0 0 0 0 0 0 0 0 0 0 0
95 2013-08-02 A-SALL West Virginia Power Lakewood BlueClaws 4 4 2 2 1 0 0 0 0 0 0 0 0 0 0 0 0 RF 0
96 2013-08-03 A-SALL West Virginia Power Lakewood BlueClaws 5 4 1 2 2 0 0 1 1 0 0 0 0 0 0 0 0 RF 0
97 2013-08-04 A-SALL West Virginia Power Lakewood BlueClaws 5 5 1 1 0 0 0 1 0 0 0 0 0 0 0 0 0 0
98 2013-08-06 A-SALL West Virginia Power @ Delmarva Shorebirds 4 3 0 1 0 0 0 2 1 0 0 0 0 0 0 0 0 RF 0
99 2013-08-07 A-SALL West Virginia Power @ Delmarva Shorebirds 4 3 0 2 0 0 0 0 1 0 0 0 0 0 0 0 0 RF 0
100 2013-08-08 A-SALL West Virginia Power @ Lakewood BlueClaws 5 5 2 2 0 0 0 0 0 0 1 0 0 0 0 0 0 0
101 2013-08-09 A-SALL West Virginia Power @ Lakewood BlueClaws 4 3 1 0 0 0 0 0 0 0 0 1 0 0 0 0 0 RF 0
102 2013-08-10 A-SALL West Virginia Power @ Lakewood BlueClaws 5 5 1 1 0 0 1 2 0 0 0 0 0 0 0 0 0 RF 0
103 2013-08-11 A-SALL West Virginia Power @ Lakewood BlueClaws 4 3 0 1 0 0 0 1 1 0 0 0 0 0 1 0 0 RF 0
104 2013-08-13 A-SALL West Virginia Power Greensboro Grasshoppers 4 3 1 3 0 0 1 1 1 1 0 0 0 0 0 0 0 RF 0
105 2013-08-14 A-SALL West Virginia Power Greensboro Grasshoppers 5 4 1 2 0 0 0 2 1 0 0 0 0 0 0 0 0 RF 0
106 2013-08-15 A-SALL West Virginia Power Greensboro Grasshoppers 4 2 0 0 0 0 0 0 2 0 0 0 0 0 0 0 0 0
107 2013-08-16 A-SALL West Virginia Power Hickory Crawdads 4 4 1 1 1 0 0 0 0 0 1 0 0 0 0 0 0 RF 0
108 2013-08-17 A-SALL West Virginia Power Hickory Crawdads 4 4 0 0 0 0 0 0 0 0 0 0 0 0 0 0 0 RF 0
109 2013-08-18 A-SALL West Virginia Power Hickory Crawdads 5 3 0 2 1 0 0 0 2 0 0 0 0 0 0 0 0 0
110 2013-08-20 A-SALL West Virginia Power @ Charleston RiverDogs 5 5 0 0 0 0 0 0 0 0 3 0 0 0 0 0 0 RF 0
111 2013-08-21 A-SALL West Virginia Power @ Charleston RiverDogs 5 4 1 1 0 0 1 3 1 0 0 0 0 0 0 0 0 RF 1
112 2013-08-22 A-SALL West Virginia Power @ Charleston RiverDogs 4 4 0 1 0 0 0 0 0 0 0 0 0 0 0 0 0 0
113 2013-08-23 A-SALL West Virginia Power @ Savannah Sand Gnats 4 4 0 0 0 0 0 0 0 0 1 0 0 0 0 0 0 RF 0
114 2013-08-24 A-SALL West Virginia Power @ Savannah Sand Gnats 4 3 0 0 0 0 0 0 1 0 2 0 0 0 0 0 0 RF 0
115 2013-08-25 A-SALL West Virginia Power @ Savannah Sand Gnats 4 4 0 0 0 0 0 0 0 0 3 0 0 0 0 0 0 0
116 2013-08-27 A-SALL West Virginia Power Asheville Tourists 4 3 1 2 0 0 0 0 1 0 0 0 0 0 0 0 0 RF 0
117 2013-08-28 A-SALL West Virginia Power Asheville Tourists 5 5 0 2 0 0 0 0 0 0 1 0 0 0 0 0 0 RF 0
118 2013-08-29 A-SALL West Virginia Power Asheville Tourists 4 4 0 0 0 0 0 0 0 0 1 0 0 0 0 0 0 0
119 2013-08-31 A-SALL West Virginia Power @ Lexington Legends 4 3 1 1 0 0 1 1 1 0 0 0 0 0 0 0 0 RF 0

2013 Player Batting Splits

Split G PA AB R H 2B 3B HR RBI SB CS BB SO BA OBP SLG OPS TB GDP HBP SH SF IBB
Total 119 519 459 75 128 37 2 13 76 1 1 52 90 .279 .353 .453 .806 208 10 3 0 5 1
Home 59 255 221 45 67 19 1 8 39 1 0 30 35 .303 .384 .507 .891 112 4 1 0 3 1
Away 60 264 238 30 61 18 1 5 37 0 1 22 55 .256 .322 .403 .725 96 6 2 0 2 0
vs RHP as LHB 113 400 353 96 23 2 11 57 42 77 .272 .353 .442 .794 156 8 3 0 2 1
vs LHP as RHB 58 119 106 32 14 0 2 19 10 13 .302 .353 .491 .844 52 2 0 0 3 0
April 23 108 101 19 28 12 0 3 28 1 0 5 27 .277 .306 .485 .791 49 4 0 0 2 0
May 29 127 106 20 28 3 1 4 12 0 1 21 25 .264 .386 .425 .810 45 2 0 0 0 0
June 20 84 80 12 26 6 1 1 11 0 0 3 12 .325 .345 .463 .808 37 2 0 0 1 0
July 21 87 74 9 18 10 0 1 11 0 0 9 13 .243 .333 .419 .752 31 1 2 0 2 0
August 26 113 98 15 28 6 0 4 14 0 0 14 13 .286 .381 .469 .850 46 1 1 0 0 1
2 outs, RISP 64 86 80 19 2 0 5 22 6 19 .238 .291 .450 .741 36 0 0 0 0 0
vs. Younger Pitchers 38 93 81 22 7 1 0 17 10 12 .272 .344 .383 .727 31 2 0 0 2 0
vs. Older Pitchers 117 426 378 106 30 1 13 59 42 78 .280 .354 .468 .823 177 8 3 0 3 1
Please note that splits include both major and minor league stats. We have decided that the splits across all levels is more useful than just minor league stats.

About the Minor League Data

Performance data on minor and international leagues is licensed from and provided by the SABR Minor Leagues Database, a community project sponsored by the Minor Leagues Committee of the Society for American Baseball Research.

The database is under active development. Many statistics are incomplete due to ongoing research and/or limitations in published sources. To learn more about these limitations, or to find out how to contribute, click here.

Minor league Total Zone (Rctch&Rtz, 2005-2009) data provided by Baseballprojection.com and Minorleaguesplits.com.